createdAt,value
2019-03-09T00:00:17.248Z,65.12
2019-03-09T00:01:17.249Z,65.12
2019-03-09T00:02:17.260Z,64.40
2019-03-09T00:03:17.209Z,64.19
2019-03-09T00:04:17.202Z,63.75
2019-03-09T00:05:17.193Z,64.47
2019-03-09T00:06:17.181Z,65.81
2019-03-09T00:07:17.173Z,65.30
2019-03-09T00:08:17.192Z,65.09
2019-03-09T00:09:17.152Z,65.40
2019-03-09T00:10:17.139Z,65.50
2019-03-09T00:11:17.126Z,65.30
2019-03-09T00:12:17.118Z,65.19
2019-03-09T00:13:17.102Z,66.33
2019-03-09T00:14:17.112Z,65.30
2019-03-09T00:15:17.085Z,66.02
2019-03-09T00:16:17.083Z,64.99
2019-03-09T00:17:17.061Z,65.30
2019-03-09T00:18:17.078Z,64.58
2019-03-09T00:19:17.046Z,64.27
2019-03-09T00:20:17.027Z,63.93
2019-03-09T00:21:17.021Z,63.93
2019-03-09T00:22:17.018Z,64.14
2019-03-09T00:23:17.003Z,64.14
2019-03-09T00:24:17.022Z,64.14
2019-03-09T00:25:19.750Z,64.14
2019-03-09T00:26:16.963Z,64.34
2019-03-09T00:27:16.954Z,63.82
2019-03-09T00:28:16.939Z,64.24
2019-03-09T00:29:16.931Z,63.62
2019-03-09T00:30:16.943Z,64.14
2019-03-09T00:31:16.911Z,63.69
2019-03-09T00:32:16.898Z,63.52
2019-03-09T00:33:16.915Z,63.62
2019-03-09T00:34:16.880Z,63.52
2019-03-09T00:35:16.914Z,63.90
2019-03-09T00:36:16.849Z,63.00
2019-03-09T00:37:16.842Z,63.07
2019-03-09T00:38:16.865Z,63.90
2019-03-09T00:39:16.821Z,63.18
2019-03-09T00:40:16.809Z,62.87
2019-03-09T00:41:16.798Z,62.77
2019-03-09T00:42:16.806Z,62.35
2019-03-09T00:43:16.811Z,63.07
2019-03-09T00:44:17.244Z,62.66
2019-03-09T00:45:16.769Z,62.15
2019-03-09T00:46:16.744Z,61.84
2019-03-09T00:47:16.733Z,62.25
2019-03-09T00:48:16.729Z,62.56
2019-03-09T00:49:16.738Z,62.35
2019-03-09T00:50:16.700Z,62.46
2019-03-09T00:51:19.246Z,61.53
2019-03-09T00:52:16.709Z,61.63
2019-03-09T00:54:15.692Z,61.51
2019-03-09T00:55:16.651Z,61.94
2019-03-09T00:56:16.634Z,61.43
2019-03-09T00:57:16.620Z,61.33
2019-03-09T00:58:16.609Z,61.61
2019-03-09T00:59:16.636Z,62.05
2019-03-09T01:00:16.588Z,61.33
2019-03-09T01:01:16.578Z,61.40
2019-03-09T01:02:16.565Z,61.53
2019-03-09T01:03:16.555Z,60.50
2019-03-09T01:04:16.566Z,61.09
2019-03-09T01:06:15.518Z,60.58
2019-03-09T01:07:16.512Z,60.09
2019-03-09T01:08:16.498Z,60.78
2019-03-09T01:09:16.527Z,60.27
2019-03-09T01:10:16.477Z,60.99
2019-03-09T01:11:16.464Z,59.96
2019-03-09T01:12:16.457Z,60.58
2019-03-09T01:13:16.447Z,60.89
2019-03-09T01:14:16.434Z,60.68
2019-03-09T01:15:16.460Z,60.47
2019-03-09T01:16:16.419Z,60.55
2019-03-09T01:17:19.238Z,60.58
2019-03-09T01:18:16.386Z,60.37
2019-03-09T01:19:16.379Z,60.47
2019-03-09T01:20:16.377Z,60.35
2019-03-09T01:21:16.380Z,59.55
2019-03-09T01:22:16.347Z,60.47
2019-03-09T01:23:16.332Z,60.58
2019-03-09T01:24:16.328Z,60.58
2019-03-09T01:25:19.236Z,60.58
2019-03-09T01:26:16.309Z,60.37
2019-03-09T01:28:15.282Z,59.96
2019-03-09T01:29:16.300Z,60.27
2019-03-09T01:30:16.260Z,60.17
2019-03-09T01:31:16.248Z,60.17
2019-03-09T01:32:16.234Z,59.86
2019-03-09T01:33:16.229Z,60.47
2019-03-09T01:34:16.239Z,60.27
2019-03-09T01:35:16.200Z,60.68
2019-03-09T01:36:16.186Z,60.09
2019-03-09T01:37:16.186Z,60.61
2019-03-09T01:38:16.170Z,60.06
2019-03-09T01:39:16.168Z,60.37
2019-03-09T01:40:16.172Z,59.65
2019-03-09T01:41:16.136Z,59.89
2019-03-09T01:42:16.131Z,59.55
2019-03-09T01:43:16.120Z,60.17
2019-03-09T01:44:16.106Z,59.65
2019-03-09T01:45:16.169Z,60.58
2019-03-09T01:46:16.084Z,60.17
2019-03-09T01:47:18.728Z,59.65
2019-03-09T01:48:16.056Z,59.78
2019-03-09T01:49:16.050Z,60.09
2019-03-09T01:50:16.276Z,60.19
2019-03-09T01:51:16.033Z,59.45
2019-03-09T01:52:16.045Z,59.27
2019-03-09T01:53:16.004Z,59.99
2019-03-09T01:54:15.993Z,59.78
2019-03-09T01:55:16.012Z,59.34
2019-03-09T01:56:15.972Z,59.55
2019-03-09T01:57:15.998Z,59.34
2019-03-09T01:58:15.951Z,60.06
2019-03-09T01:59:15.942Z,60.27
2019-03-09T02:00:15.949Z,59.75
2019-03-09T02:01:15.918Z,59.34
2019-03-09T02:02:15.940Z,59.55
2019-03-09T02:03:15.927Z,59.96
2019-03-09T02:04:15.884Z,59.45
2019-03-09T02:05:15.877Z,59.55
2019-03-09T02:06:15.860Z,59.45
2019-03-09T02:07:15.872Z,60.37
2019-03-09T02:08:15.849Z,60.06
2019-03-09T02:09:15.836Z,59.86
2019-03-09T02:10:15.818Z,59.55
2019-03-09T02:11:15.802Z,59.96
2019-03-09T02:12:15.831Z,59.75
2019-03-09T02:13:15.781Z,59.65
2019-03-09T02:14:15.768Z,59.96
2019-03-09T02:15:15.769Z,59.96
2019-03-09T02:16:15.748Z,59.96
2019-03-09T02:17:15.746Z,60.17
2019-03-09T02:18:15.756Z,59.86
2019-03-09T02:19:15.720Z,60.37
2019-03-09T02:20:15.704Z,60.06
2019-03-09T02:21:15.696Z,60.17
2019-03-09T02:23:14.671Z,59.75
2019-03-09T02:24:15.703Z,59.24
2019-03-09T02:25:15.680Z,59.75
2019-03-09T02:26:15.636Z,60.06
2019-03-09T02:27:15.634Z,60.09
2019-03-09T02:28:15.616Z,58.86
2019-03-09T02:29:15.610Z,59.78
2019-03-09T02:30:15.600Z,59.37
2019-03-09T02:31:15.614Z,59.45
2019-03-09T02:32:15.576Z,59.55
2019-03-09T02:33:15.563Z,59.58
2019-03-09T02:34:15.556Z,59.75
2019-03-09T02:35:15.548Z,59.47
2019-03-09T02:36:15.530Z,59.03
2019-03-09T02:37:15.552Z,59.27
2019-03-09T02:38:15.518Z,59.89
2019-03-09T02:39:15.512Z,59.78
2019-03-09T02:40:15.486Z,59.06
2019-03-09T02:41:15.490Z,59.65
2019-03-09T02:42:15.466Z,59.27
2019-03-09T02:43:15.459Z,58.65
2019-03-09T02:44:15.451Z,58.93
2019-03-09T02:45:15.457Z,58.54
2019-03-09T02:46:15.431Z,59.55
2019-03-09T02:47:15.418Z,58.11
2019-03-09T02:48:15.397Z,58.21
2019-03-09T02:49:15.386Z,58.45
2019-03-09T02:50:15.401Z,59.45
2019-03-09T02:51:20.786Z,58.03
2019-03-09T02:52:15.353Z,57.80
2019-03-09T02:53:15.356Z,58.24
2019-03-09T02:54:15.337Z,57.82
2019-03-09T02:55:15.320Z,57.82
2019-03-09T02:56:15.339Z,57.82
2019-03-09T02:57:15.316Z,58.01
2019-03-09T02:58:15.284Z,57.50
2019-03-09T02:59:15.277Z,58.45
2019-03-09T03:00:15.277Z,57.80
2019-03-09T03:01:15.287Z,58.14
2019-03-09T03:02:15.265Z,57.80
2019-03-09T03:03:15.235Z,57.70
2019-03-09T03:04:15.229Z,57.39
2019-03-09T03:05:15.216Z,57.90
2019-03-09T03:06:15.200Z,58.24
2019-03-09T03:07:15.188Z,58.65
2019-03-09T03:08:15.214Z,58.52
2019-03-09T03:09:15.178Z,58.11
2019-03-09T03:10:15.155Z,58.24
2019-03-09T03:11:15.149Z,58.45
2019-03-09T03:12:17.707Z,58.01
2019-03-09T03:13:15.157Z,58.21
2019-03-09T03:14:15.142Z,58.11
2019-03-09T03:15:15.101Z,58.42
2019-03-09T03:16:15.101Z,58.34
2019-03-09T03:18:14.088Z,58.11
2019-03-09T03:19:15.061Z,58.54
2019-03-09T03:20:15.052Z,58.45
2019-03-09T03:21:15.034Z,57.93
2019-03-09T03:22:17.707Z,58.24
2019-03-09T03:23:15.016Z,58.24
2019-03-09T03:24:15.007Z,58.14
2019-03-09T03:25:14.991Z,57.82
2019-03-09T03:26:14.983Z,58.03
2019-03-09T03:27:14.965Z,57.73
2019-03-09T03:28:14.999Z,57.93
2019-03-09T03:29:14.946Z,57.93
2019-03-09T03:30:14.940Z,57.52
2019-03-09T03:31:14.926Z,57.62
2019-03-09T03:32:14.920Z,57.73
2019-03-09T03:33:14.909Z,58.14
2019-03-09T03:34:14.926Z,57.73
2019-03-09T03:35:14.878Z,57.82
2019-03-09T03:36:14.873Z,57.52
2019-03-09T03:37:14.859Z,57.82
2019-03-09T03:38:14.847Z,58.65
2019-03-09T03:39:14.866Z,58.14
2019-03-09T03:40:14.827Z,57.59
2019-03-09T03:41:14.815Z,56.98
2019-03-09T03:42:14.817Z,57.21
2019-03-09T03:43:16.178Z,57.73
2019-03-09T03:44:14.813Z,57.82
2019-03-09T03:45:14.765Z,58.14
2019-03-09T03:46:14.757Z,57.31
2019-03-09T03:47:14.790Z,57.39
2019-03-09T03:48:14.742Z,57.21
2019-03-09T03:49:14.725Z,57.52
2019-03-09T03:50:14.788Z,58.03
2019-03-09T03:51:14.721Z,57.82
2019-03-09T03:52:14.707Z,57.52
2019-03-09T03:53:14.692Z,58.11
2019-03-09T03:54:14.670Z,58.14
2019-03-09T03:55:14.691Z,57.52
2019-03-09T03:56:14.657Z,57.50
2019-03-09T03:57:14.647Z,57.82
2019-03-09T03:58:14.627Z,56.98
2019-03-09T03:59:14.632Z,57.21
2019-03-09T04:00:14.634Z,55.85
2019-03-09T04:01:14.599Z,56.67
2019-03-09T04:02:14.581Z,56.67
2019-03-09T04:03:14.605Z,57.21
2019-03-09T04:04:14.561Z,56.80
2019-03-09T04:05:14.584Z,57.93
2019-03-09T04:06:14.539Z,58.54
2019-03-09T04:07:14.524Z,57.50
2019-03-09T04:08:14.516Z,57.18
2019-03-09T04:09:14.506Z,57.42
2019-03-09T04:10:14.524Z,57.39
2019-03-09T04:11:14.486Z,57.31
2019-03-09T04:12:14.471Z,57.39
2019-03-09T04:13:14.460Z,56.57
2019-03-09T04:14:14.446Z,57.18
2019-03-09T04:15:14.550Z,57.18
2019-03-09T04:16:14.427Z,56.67
2019-03-09T04:17:14.428Z,55.46
2019-03-09T04:18:14.404Z,56.38
2019-03-09T04:19:14.399Z,55.64
2019-03-09T04:20:14.386Z,55.46
2019-03-09T04:21:17.182Z,55.66
2019-03-09T04:22:15.186Z,56.15
2019-03-09T04:23:14.345Z,55.46
2019-03-09T04:24:14.336Z,55.64
2019-03-09T04:25:17.197Z,55.77
2019-03-09T04:26:14.312Z,55.87
2019-03-09T04:28:13.290Z,55.26
2019-03-09T04:29:14.288Z,55.98
2019-03-09T04:30:14.308Z,54.94
2019-03-09T04:31:14.264Z,54.64
2019-03-09T04:32:14.251Z,54.92
2019-03-09T04:33:14.261Z,54.20
2019-03-09T04:35:13.213Z,54.22
2019-03-09T04:36:14.725Z,54.51
2019-03-09T04:37:14.201Z,54.82
2019-03-09T04:38:14.183Z,55.15
2019-03-09T04:39:14.169Z,55.33
2019-03-09T04:40:14.679Z,54.61
2019-03-09T04:41:14.159Z,55.57
2019-03-09T04:42:14.173Z,55.66
2019-03-09T04:43:14.137Z,54.51
2019-03-09T04:44:14.118Z,54.85
2019-03-09T04:45:14.133Z,54.74
2019-03-09T04:46:14.096Z,55.74
2019-03-09T04:48:13.073Z,55.13
2019-03-09T04:49:14.089Z,54.61
2019-03-09T04:50:14.052Z,54.51
2019-03-09T04:51:14.037Z,54.61
2019-03-09T04:52:14.023Z,54.72
2019-03-09T04:53:14.018Z,54.51
2019-03-09T04:54:14.039Z,54.61
2019-03-09T04:55:13.997Z,54.41
2019-03-09T04:56:13.981Z,54.51
2019-03-09T04:57:13.986Z,53.89
2019-03-09T04:58:13.975Z,53.89
2019-03-09T04:59:13.965Z,53.69
2019-03-09T05:00:14.009Z,55.02
2019-03-09T05:01:13.921Z,53.89
2019-03-09T05:02:13.917Z,54.20
2019-03-09T05:03:13.902Z,54.41
2019-03-09T05:05:12.881Z,54.00
2019-03-09T05:06:13.897Z,53.58
2019-03-09T05:07:13.863Z,54.51
2019-03-09T05:08:13.859Z,54.61
2019-03-09T05:09:13.849Z,54.59
2019-03-09T05:10:13.862Z,54.49
2019-03-09T05:12:12.804Z,53.56
2019-03-09T05:14:13.073Z,53.97
2019-03-09T05:15:13.776Z,53.56
2019-03-09T05:16:13.775Z,54.17
2019-03-09T05:17:13.751Z,53.97
2019-03-09T05:18:13.735Z,53.66
2019-03-09T05:19:13.761Z,54.07
2019-03-09T05:20:13.714Z,54.28
2019-03-09T05:21:13.706Z,54.28
2019-03-09T05:22:13.693Z,54.28
2019-03-09T05:23:13.704Z,53.77
2019-03-09T05:24:13.671Z,54.28
2019-03-09T05:25:13.710Z,54.28
2019-03-09T05:26:13.673Z,53.97
2019-03-09T05:27:13.636Z,53.87
2019-03-09T05:28:13.635Z,53.45
2019-03-09T05:29:13.624Z,54.07
2019-03-09T05:30:13.613Z,54.07
2019-03-09T05:31:13.634Z,53.87
2019-03-09T05:32:13.586Z,54.49
2019-03-09T05:33:13.577Z,53.87
2019-03-09T05:34:13.568Z,53.56
2019-03-09T05:35:13.553Z,53.66
2019-03-09T05:36:13.545Z,53.87
2019-03-09T05:37:13.564Z,53.66
2019-03-09T05:38:13.521Z,53.77
2019-03-09T05:39:13.505Z,53.56
2019-03-09T05:40:13.497Z,53.77
2019-03-09T05:41:13.484Z,53.66
2019-03-09T05:42:13.477Z,53.74
2019-03-09T05:43:13.497Z,53.45
2019-03-09T05:44:13.454Z,53.87
2019-03-09T05:45:13.439Z,54.17
2019-03-09T05:46:13.442Z,54.49
2019-03-09T05:47:13.423Z,53.66
2019-03-09T05:48:13.402Z,53.97
2019-03-09T05:49:13.429Z,54.28
2019-03-09T05:50:13.411Z,54.15
2019-03-09T05:51:13.405Z,54.05
2019-03-09T05:52:13.364Z,53.94
2019-03-09T05:53:13.363Z,54.77
2019-03-09T05:54:13.351Z,53.64
2019-03-09T05:55:13.331Z,54.05
2019-03-09T05:56:16.156Z,54.25
2019-03-09T05:57:13.707Z,53.94
2019-03-09T05:58:13.298Z,54.25
2019-03-09T05:59:13.286Z,54.66
2019-03-09T06:00:13.273Z,55.49
2019-03-09T06:01:13.293Z,54.56
2019-03-09T06:02:13.254Z,55.49
2019-03-09T06:03:14.157Z,55.69
2019-03-09T06:04:13.229Z,55.82
2019-03-09T06:05:13.224Z,56.51
2019-03-09T06:06:13.242Z,55.69
2019-03-09T06:07:16.161Z,56.93
2019-03-09T06:08:13.187Z,57.44
2019-03-09T06:09:13.177Z,57.06
2019-03-09T06:10:13.162Z,56.95
2019-03-09T06:11:13.189Z,58.18
2019-03-09T06:12:13.146Z,58.47
2019-03-09T06:13:13.133Z,59.31
2019-03-09T06:14:13.120Z,59.01
2019-03-09T06:15:13.136Z,59.52
2019-03-09T06:16:13.092Z,60.35
2019-03-09T06:17:13.091Z,59.83
2019-03-09T06:18:13.078Z,60.45
2019-03-09T06:19:13.057Z,59.63
2019-03-09T06:20:13.060Z,60.75
2019-03-09T06:21:13.070Z,60.55
2019-03-09T06:22:13.026Z,60.03
2019-03-09T06:23:13.656Z,59.96
2019-03-09T06:24:13.015Z,61.07
2019-03-09T06:25:12.997Z,60.35
2019-03-09T06:26:13.015Z,61.99
2019-03-09T06:27:13.652Z,62.33
2019-03-09T06:28:12.968Z,62.63
2019-03-09T06:29:12.961Z,62.12
2019-03-09T06:30:12.943Z,62.33
2019-03-09T06:31:17.650Z,63.46
2019-03-09T06:32:12.916Z,64.39
2019-03-09T06:33:12.914Z,63.59
2019-03-09T06:34:12.905Z,64.83
2019-03-09T06:35:12.918Z,66.27
2019-03-09T06:36:12.908Z,63.49
2019-03-09T06:37:13.648Z,64.18
2019-03-09T06:38:12.856Z,65.03
2019-03-09T06:39:12.844Z,64.72
2019-03-09T06:40:12.827Z,64.62
2019-03-09T06:41:12.825Z,65.03
2019-03-09T06:42:12.829Z,65.65
2019-03-09T06:43:12.794Z,65.95
2019-03-09T06:44:12.786Z,66.88
2019-03-09T06:45:12.776Z,66.47
2019-03-09T06:46:12.769Z,66.19
2019-03-09T06:47:12.792Z,66.16
2019-03-09T06:48:12.754Z,66.40
2019-03-09T06:49:12.744Z,66.91
2019-03-09T06:50:12.718Z,65.68
2019-03-09T06:51:12.709Z,64.86
2019-03-09T06:52:12.698Z,65.03
2019-03-09T06:53:12.726Z,65.95
2019-03-09T06:54:12.680Z,65.44
2019-03-09T06:55:12.672Z,64.96
2019-03-09T06:56:12.654Z,65.16
2019-03-09T06:57:14.095Z,65.75
2019-03-09T06:58:13.579Z,66.27
2019-03-09T06:59:12.639Z,66.27
2019-03-09T07:00:12.612Z,66.78
2019-03-09T07:01:12.604Z,66.27
2019-03-09T07:02:12.592Z,65.99
2019-03-09T07:03:12.613Z,66.09
2019-03-09T07:04:12.568Z,66.50
2019-03-09T07:05:12.552Z,66.91
2019-03-09T07:06:12.580Z,66.99
2019-03-09T07:07:12.550Z,66.50
2019-03-09T07:08:12.532Z,67.12
2019-03-09T07:09:12.517Z,66.09
2019-03-09T07:10:12.498Z,66.58
2019-03-09T07:11:12.490Z,67.19
2019-03-09T07:12:15.636Z,67.12
2019-03-09T07:13:12.473Z,67.50
2019-03-09T07:14:12.463Z,67.84
2019-03-09T07:15:12.455Z,68.12
2019-03-09T07:16:12.443Z,68.02
2019-03-09T07:17:13.137Z,68.98
2019-03-09T07:18:15.147Z,68.87
2019-03-09T07:19:12.402Z,70.31
2019-03-09T07:20:13.116Z,69.59
2019-03-09T07:21:12.384Z,70.00
2019-03-09T07:23:11.387Z,70.42
2019-03-09T07:24:12.346Z,69.83
2019-03-09T07:25:12.354Z,70.65
2019-03-09T07:26:12.678Z,71.44
2019-03-09T07:27:12.332Z,70.31
2019-03-09T07:28:12.304Z,70.52
2019-03-09T07:29:12.298Z,70.83
2019-03-09T07:30:12.282Z,70.52
2019-03-09T07:31:12.276Z,71.58
2019-03-09T07:32:12.260Z,71.37
2019-03-09T07:33:12.259Z,71.17
2019-03-09T07:34:12.241Z,71.99
2019-03-09T07:35:12.232Z,73.23
2019-03-09T07:36:12.229Z,72.09
2019-03-09T07:37:12.201Z,73.33
2019-03-09T07:38:15.132Z,74.88
2019-03-09T07:39:12.192Z,74.71
2019-03-09T07:40:12.176Z,74.71
2019-03-09T07:41:12.157Z,77.90
2019-03-09T07:42:12.159Z,77.80
2019-03-09T07:43:12.130Z,75.73
2019-03-09T07:45:11.118Z,75.67
2019-03-09T07:46:12.139Z,78.31
2019-03-09T07:47:12.093Z,76.70
2019-03-09T07:48:12.080Z,75.87
2019-03-09T07:49:12.064Z,77.62
2019-03-09T07:50:12.059Z,76.18
2019-03-09T07:51:12.058Z,77.11
2019-03-09T07:52:12.066Z,75.87
2019-03-09T07:53:12.026Z,76.08
2019-03-09T07:54:12.079Z,75.77
2019-03-09T07:55:12.006Z,75.87
2019-03-09T07:56:11.994Z,76.49
2019-03-09T07:57:11.980Z,75.77
2019-03-09T07:58:11.970Z,74.60
2019-03-09T07:59:11.996Z,75.73
2019-03-09T08:00:11.958Z,73.26
2019-03-09T08:01:11.940Z,74.08
2019-03-09T08:02:11.928Z,73.68
2019-03-09T08:03:13.482Z,73.88
2019-03-09T08:04:11.952Z,73.16
2019-03-09T08:05:11.900Z,73.43
2019-03-09T08:06:11.891Z,72.41
2019-03-09T08:07:11.876Z,73.13
2019-03-09T08:08:11.864Z,71.89
2019-03-09T08:09:11.856Z,71.03
2019-03-09T08:10:12.167Z,71.37
2019-03-09T08:11:11.842Z,70.96
2019-03-09T08:12:11.822Z,70.00
2019-03-09T08:13:11.810Z,69.79
2019-03-09T08:14:11.846Z,69.59
2019-03-09T08:15:11.785Z,69.90
2019-03-09T08:16:11.777Z,68.74
2019-03-09T08:17:11.762Z,68.74
2019-03-09T08:18:11.752Z,67.68
2019-03-09T08:19:11.784Z,67.26
2019-03-09T08:20:14.628Z,67.98
2019-03-09T08:21:11.730Z,67.47
2019-03-09T08:22:11.740Z,67.57
2019-03-09T08:23:11.695Z,66.82
2019-03-09T08:24:11.693Z,67.03
2019-03-09T08:25:11.688Z,66.72
2019-03-09T08:26:11.668Z,65.25
2019-03-09T08:27:11.664Z,65.45
2019-03-09T08:28:11.671Z,64.29
2019-03-09T08:29:11.634Z,64.84
2019-03-09T08:30:11.638Z,64.84
2019-03-09T08:31:11.617Z,63.98
2019-03-09T08:32:11.601Z,63.57
2019-03-09T08:33:11.599Z,63.57
2019-03-09T08:34:11.624Z,64.19
2019-03-09T08:35:11.620Z,63.98
2019-03-09T08:37:10.550Z,64.19
2019-03-09T08:38:11.546Z,63.96
2019-03-09T08:39:11.526Z,64.26
2019-03-09T08:40:13.157Z,63.85
2019-03-09T08:41:11.552Z,63.54
2019-03-09T08:42:11.493Z,62.73
2019-03-09T08:43:11.483Z,62.31
2019-03-09T08:44:11.462Z,61.98
2019-03-09T08:45:11.478Z,62.59
2019-03-09T08:46:11.482Z,62.18
2019-03-09T08:47:11.442Z,61.46
2019-03-09T08:48:11.430Z,61.46
2019-03-09T08:49:11.445Z,62.08
2019-03-09T08:50:11.419Z,61.67
2019-03-09T08:51:11.426Z,61.02
2019-03-09T08:52:11.380Z,61.85
2019-03-09T08:53:11.401Z,61.85
2019-03-09T08:54:11.365Z,61.23
2019-03-09T08:55:11.347Z,60.10
2019-03-09T08:56:11.348Z,60.49
2019-03-09T08:57:11.357Z,60.79
2019-03-09T08:58:11.318Z,60.07
2019-03-09T08:59:11.301Z,59.77
2019-03-09T09:00:11.294Z,60.28
2019-03-09T09:01:11.316Z,59.97
2019-03-09T09:02:11.288Z,59.77
2019-03-09T09:03:11.296Z,60.17
2019-03-09T09:04:11.260Z,59.66
2019-03-09T09:05:11.240Z,60.49
2019-03-09T09:06:11.235Z,59.84
2019-03-09T09:07:11.215Z,59.64
2019-03-09T09:08:11.208Z,59.64
2019-03-09T09:09:11.248Z,60.05
2019-03-09T09:10:11.187Z,60.15
2019-03-09T09:11:11.175Z,59.74
2019-03-09T09:12:11.182Z,60.56
2019-03-09T09:13:11.174Z,59.71
2019-03-09T09:14:11.142Z,59.43
2019-03-09T09:15:11.129Z,59.41
2019-03-09T09:16:11.157Z,60.22
2019-03-09T09:17:11.105Z,59.09
2019-03-09T09:18:11.100Z,59.50
2019-03-09T09:19:11.123Z,59.61
2019-03-09T09:20:11.074Z,59.00
2019-03-09T09:21:11.069Z,58.79
2019-03-09T09:22:11.054Z,58.79
2019-03-09T09:23:11.043Z,58.04
2019-03-09T09:24:11.038Z,57.20
2019-03-09T09:25:11.055Z,57.17
2019-03-09T09:26:11.011Z,55.92
2019-03-09T09:27:11.007Z,55.71
2019-03-09T09:28:11.009Z,55.51
2019-03-09T09:29:10.974Z,55.99
2019-03-09T09:30:10.961Z,56.40
2019-03-09T09:31:10.954Z,55.69
2019-03-09T09:32:10.949Z,55.89
2019-03-09T09:33:10.933Z,55.89
2019-03-09T09:34:10.923Z,55.51
2019-03-09T09:35:10.909Z,56.43
2019-03-09T09:36:11.149Z,56.74
2019-03-09T09:37:10.910Z,57.04
2019-03-09T09:38:10.879Z,56.97
2019-03-09T09:39:10.863Z,57.28
2019-03-09T09:40:10.859Z,57.79
2019-03-09T09:41:10.869Z,57.45
2019-03-09T09:42:10.831Z,56.43
2019-03-09T09:43:10.821Z,56.74
2019-03-09T09:44:10.805Z,56.94
2019-03-09T09:45:10.798Z,56.94
2019-03-09T09:46:10.795Z,57.15
2019-03-09T09:47:10.808Z,57.04
2019-03-09T09:48:10.762Z,56.74
2019-03-09T09:49:10.752Z,57.04
2019-03-09T09:50:10.742Z,57.02
2019-03-09T09:51:10.733Z,56.94
2019-03-09T09:52:10.725Z,56.10
2019-03-09T09:53:10.747Z,56.81
2019-03-09T09:54:10.697Z,56.81
2019-03-09T09:55:10.694Z,56.61
2019-03-09T09:56:10.677Z,56.30
2019-03-09T09:57:10.665Z,56.20
2019-03-09T09:58:10.681Z,55.99
2019-03-09T09:59:10.641Z,55.99
2019-03-09T10:00:10.641Z,55.79
2019-03-09T10:01:10.657Z,55.99
2019-03-09T10:02:10.613Z,55.89
2019-03-09T10:03:10.633Z,55.89
2019-03-09T10:04:10.587Z,55.92
2019-03-09T10:05:10.592Z,55.62
2019-03-09T10:06:10.564Z,56.20
2019-03-09T10:07:10.561Z,56.71
2019-03-09T10:08:18.138Z,55.89
2019-03-09T10:09:10.570Z,56.30
2019-03-09T10:10:10.520Z,55.49
2019-03-09T10:11:10.511Z,56.10
2019-03-09T10:12:10.495Z,55.69
2019-03-09T10:13:10.504Z,55.99
2019-03-09T10:14:10.535Z,55.38
2019-03-09T10:15:10.475Z,55.26
2019-03-09T10:16:10.451Z,55.05
2019-03-09T10:17:10.453Z,55.87
2019-03-09T10:18:10.435Z,55.56
2019-03-09T10:19:11.278Z,54.61
2019-03-09T10:20:10.443Z,54.31
2019-03-09T10:21:10.401Z,54.41
2019-03-09T10:23:09.382Z,54.82
2019-03-09T10:24:10.377Z,54.61
2019-03-09T10:25:10.414Z,53.98
2019-03-09T10:26:10.355Z,54.28
2019-03-09T10:28:09.327Z,53.06
2019-03-09T10:29:10.319Z,53.85
2019-03-09T10:30:10.303Z,53.36
2019-03-09T10:31:10.307Z,52.96
2019-03-09T10:32:10.631Z,53.36
2019-03-09T10:33:10.283Z,53.49
2019-03-09T10:34:10.267Z,53.70
2019-03-09T10:35:10.261Z,53.59
2019-03-09T10:36:10.245Z,54.00
2019-03-09T10:37:10.266Z,53.47
2019-03-09T10:38:13.079Z,53.08
2019-03-09T10:39:10.212Z,53.80
2019-03-09T10:40:10.195Z,52.96
2019-03-09T10:41:10.194Z,53.59
2019-03-09T10:42:13.086Z,53.49
2019-03-09T10:43:10.191Z,53.70
2019-03-09T10:44:10.152Z,53.36
2019-03-09T10:45:10.155Z,52.47
2019-03-09T10:46:10.140Z,53.67
2019-03-09T10:47:11.629Z,52.65
2019-03-09T10:48:10.147Z,52.55
2019-03-09T10:50:09.089Z,52.65
2019-03-09T10:51:10.072Z,51.40
2019-03-09T10:52:10.061Z,51.93
2019-03-09T10:53:10.065Z,51.63
2019-03-09T10:54:10.142Z,51.84
2019-03-09T10:55:10.039Z,52.34
2019-03-09T10:56:10.023Z,52.04
2019-03-09T10:57:10.025Z,51.43
2019-03-09T10:58:10.001Z,52.34
2019-03-09T10:59:09.986Z,52.55
2019-03-09T11:00:12.579Z,52.65
2019-03-09T11:01:09.970Z,51.84
2019-03-09T11:02:09.962Z,52.25
2019-03-09T11:03:09.946Z,51.93
2019-03-09T11:04:09.934Z,51.84
2019-03-09T11:05:09.929Z,52.32
2019-03-09T11:06:09.955Z,52.32
2019-03-09T11:07:09.905Z,51.84
2019-03-09T11:08:09.896Z,51.81
2019-03-09T11:09:09.881Z,51.61
2019-03-09T11:10:12.586Z,52.22
2019-03-09T11:11:09.900Z,51.91
2019-03-09T11:12:09.852Z,51.81
2019-03-09T11:13:09.854Z,51.71
2019-03-09T11:14:09.866Z,52.32
2019-03-09T11:15:09.833Z,52.32
2019-03-09T11:16:09.809Z,52.12
2019-03-09T11:17:09.798Z,52.01
2019-03-09T11:18:09.782Z,52.12
2019-03-09T11:19:09.799Z,52.62
2019-03-09T11:20:09.759Z,52.22
2019-03-09T11:21:09.783Z,52.22
2019-03-09T11:22:09.766Z,52.62
2019-03-09T11:23:12.579Z,52.53
2019-03-09T11:24:09.731Z,51.91
2019-03-09T11:25:09.707Z,52.42
2019-03-09T11:26:09.700Z,52.32
2019-03-09T11:27:09.693Z,52.42
2019-03-09T11:28:09.675Z,52.32
2019-03-09T11:29:09.705Z,52.53
2019-03-09T11:30:09.648Z,52.20
2019-03-09T11:31:12.581Z,51.91
2019-03-09T11:32:09.633Z,52.53
2019-03-09T11:33:09.617Z,52.01
2019-03-09T11:34:09.638Z,52.12
2019-03-09T11:35:09.608Z,51.81
2019-03-09T11:36:09.589Z,51.99
2019-03-09T11:37:09.579Z,51.20
2019-03-09T11:38:09.562Z,51.68
2019-03-09T11:39:09.582Z,51.68
2019-03-09T11:40:10.147Z,51.28
2019-03-09T11:41:18.726Z,50.67
2019-03-09T11:42:09.525Z,51.79
2019-03-09T11:43:09.517Z,50.95
2019-03-09T11:44:09.499Z,50.87
2019-03-09T11:45:09.528Z,50.44
2019-03-09T11:46:09.477Z,49.75
2019-03-09T11:47:09.465Z,50.44
2019-03-09T11:48:09.456Z,50.87
2019-03-09T11:49:09.443Z,50.36
2019-03-09T11:50:09.463Z,50.05
2019-03-09T11:51:09.425Z,50.03
2019-03-09T11:52:19.665Z,50.67
2019-03-09T11:53:09.399Z,50.03
2019-03-09T11:54:09.403Z,50.44
2019-03-09T11:55:09.404Z,50.44
2019-03-09T11:56:09.366Z,50.23
2019-03-09T11:57:09.354Z,50.01
2019-03-09T11:58:09.350Z,50.03
2019-03-09T11:59:09.358Z,50.52
2019-03-09T12:00:09.324Z,50.11
2019-03-09T12:01:09.342Z,50.11
2019-03-09T12:02:09.300Z,50.44
2019-03-09T12:03:12.068Z,49.73
2019-03-09T12:04:09.278Z,50.03
2019-03-09T12:05:09.277Z,50.03
2019-03-09T12:06:09.255Z,50.01
2019-03-09T12:07:09.288Z,50.03
2019-03-09T12:08:09.239Z,50.23
2019-03-09T12:09:09.224Z,50.23
2019-03-09T12:10:09.239Z,49.80
2019-03-09T12:11:09.196Z,49.50
2019-03-09T12:12:09.190Z,49.80
2019-03-09T12:13:09.178Z,49.60
2019-03-09T12:14:09.222Z,49.70
2019-03-09T12:15:09.173Z,49.50
2019-03-09T12:16:09.147Z,49.50
2019-03-09T12:17:12.396Z,49.90
2019-03-09T12:18:09.121Z,48.99
2019-03-09T12:19:09.107Z,49.88
2019-03-09T12:20:09.136Z,50.01
2019-03-09T12:21:09.083Z,49.60
2019-03-09T12:22:09.074Z,48.99
2019-03-09T12:23:09.069Z,49.40
2019-03-09T12:24:16.454Z,49.37
2019-03-09T12:25:09.041Z,50.29
2019-03-09T12:26:09.054Z,49.27
2019-03-09T12:27:09.020Z,50.09
2019-03-09T12:28:11.561Z,50.29
2019-03-09T12:29:09.000Z,49.29
2019-03-09T12:30:09.018Z,50.11
2019-03-09T12:31:08.980Z,49.29
2019-03-09T12:32:08.960Z,49.60
2019-03-09T12:33:08.955Z,49.60
2019-03-09T12:34:08.937Z,50.21
2019-03-09T12:35:08.956Z,51.15
2019-03-09T12:36:08.915Z,53.39
2019-03-09T12:37:08.904Z,54.24
2019-03-09T12:38:08.896Z,56.17
2019-03-09T12:39:08.888Z,56.81
2019-03-09T12:40:08.915Z,56.81
2019-03-09T12:41:11.557Z,55.61
2019-03-09T12:42:08.856Z,56.76
2019-03-09T12:43:08.843Z,66.39
2019-03-09T12:44:08.830Z,66.11
2019-03-09T12:45:08.850Z,67.57
2019-03-09T12:46:08.808Z,69.04
2019-03-09T12:47:08.791Z,71.90
2019-03-09T12:48:08.787Z,70.29
2019-03-09T12:49:11.550Z,69.27
2019-03-09T12:50:08.798Z,72.69
2019-03-09T12:51:08.755Z,70.23
2019-03-09T12:52:08.747Z,71.36
2019-03-09T12:53:08.731Z,71.36
2019-03-09T12:54:08.725Z,70.84
2019-03-09T12:55:08.713Z,72.78
2019-03-09T12:56:08.727Z,69.10
2019-03-09T12:57:08.695Z,67.77
2019-03-09T12:58:08.674Z,69.20
2019-03-09T12:59:08.669Z,71.97
2019-03-09T13:00:08.661Z,72.48
2019-03-09T13:01:11.606Z,69.71
2019-03-09T13:02:08.669Z,68.38
2019-03-09T13:03:08.632Z,71.45
2019-03-09T13:04:11.546Z,72.58
2019-03-09T13:05:08.645Z,74.32
2019-03-09T13:06:08.584Z,72.48
2019-03-09T13:07:08.581Z,75.99
2019-03-09T13:08:08.569Z,75.89
2019-03-09T13:09:08.557Z,76.20